Time;durP1;ratioP1;P1;durP2;ratioP2;P2;SDS_P1;SDS_P2;PMS_P1;PMS_P2;Temp;Humidity;BMP_temperature;BMP_pressure;BME280_temperature;BME280_humidity;BME280_pressure;Samples;Min_cycle;Max_cycle;Signal;HPM_P1;HPM_P2
2021/07/10 00:01:12;;;;;;;1.90;1.80;;;;;;;22.19;100.00;97865.09;5016595;28;20257;-66
2021/07/10 00:03:39;;;;;;;1.83;1.73;;;;;;;22.27;100.00;97870.44;5018579;28;20205;-66
2021/07/10 00:06:06;;;;;;;1.80;1.70;;;;;;;22.63;100.00;97931.44;5017619;28;20621;-66
2021/07/10 00:08:33;;;;;;;1.67;1.57;;;;;;;22.64;100.00;97935.72;5015963;28;20725;-66
2021/07/10 00:11:00;;;;;;;2.00;1.90;;;;;;;21.64;100.00;97760.03;5012134;28;20249;-66
2021/07/10 00:13:26;;;;;;;1.87;1.77;;;;;;;22.10;100.00;97843.44;5014104;28;20240;-67
2021/07/10 00:15:53;;;;;;;1.80;1.70;;;;;;;22.29;100.00;97877.34;5014451;28;20643;-69
2021/07/10 00:18:20;;;;;;;1.90;1.80;;;;;;;22.08;100.00;97851.06;5018325;28;20241;-66
2021/07/10 00:20:46;;;;;;;1.80;1.70;;;;;;;22.64;100.00;97942.53;5018351;28;20316;-66
2021/07/10 00:23:13;;;;;;;1.70;1.60;;;;;;;22.64;100.00;97930.59;5013847;28;20651;-66
2021/07/10 00:25:39;;;;;;;1.83;1.73;;;;;;;22.64;100.00;97939.97;5018046;28;20288;-69
2021/07/10 00:28:07;;;;;;;2.00;1.80;;;;;;;22.64;100.00;97938.28;5014269;28;20327;-66
2021/07/10 00:30:35;;;;;;;2.70;2.00;;;;;;;22.65;100.00;97941.72;5016788;28;20221;-66
2021/07/10 00:33:02;;;;;;;1.90;1.80;;;;;;;22.65;100.00;97939.16;5017437;28;20249;-66
2021/07/10 00:35:29;;;;;;;2.13;1.70;;;;;;;22.65;100.00;97934.91;5009997;28;20206;-66
2021/07/10 00:37:56;;;;;;;2.10;1.90;;;;;;;22.65;100.00;97940.03;5011383;28;20198;-67
2021/07/10 00:40:22;;;;;;;2.00;1.90;;;;;;;22.29;100.00;97871.38;5014644;28;20338;-66
2021/07/10 00:42:49;;;;;;;1.70;1.60;;;;;;;22.65;100.00;97926.34;5016660;28;20201;-66
2021/07/10 00:45:15;;;;;;;1.80;1.70;;;;;;;22.66;100.00;97925.53;5012064;28;20293;-67
2021/07/10 00:47:42;;;;;;;1.70;1.60;;;;;;;22.65;100.00;97924.66;5017549;28;20292;-66
2021/07/10 00:50:15;;;;;;;1.67;1.57;;;;;;;22.67;100.00;97927.25;5015895;28;20260;-66
2021/07/10 00:52:42;;;;;;;2.00;1.90;;;;;;;22.67;100.00;97925.56;5014594;28;20198;-65
2021/07/10 00:55:09;;;;;;;1.80;1.63;;;;;;;22.31;100.00;97860.34;5009916;28;20257;-66
2021/07/10 00:57:36;;;;;;;1.90;1.73;;;;;;;21.71;100.00;97759.41;5012171;28;20208;-68
2021/07/10 01:00:07;;;;;;;2.00;1.90;;;;;;;22.49;100.00;97891.66;5006424;28;20253;-66
2021/07/10 01:02:34;;;;;;;1.90;1.80;;;;;;;22.68;100.00;97918.78;5004859;28;20258;-63
2021/07/10 01:05:03;;;;;;;1.93;1.80;;;;;;;22.02;100.00;97806.50;5011742;28;20199;-66
2021/07/10 01:07:30;;;;;;;1.77;1.67;;;;;;;22.68;100.00;97914.50;5014420;28;20265;-66
2021/07/10 01:09:56;;;;;;;1.80;1.70;;;;;;;22.68;100.00;97916.19;5017237;28;20646;-67
2021/07/10 01:12:23;;;;;;;1.80;1.70;;;;;;;22.68;100.00;97911.09;5015493;28;20292;-66
2021/07/10 01:14:49;;;;;;;1.80;1.70;;;;;;;22.68;100.00;97908.53;4998931;28;20327;-66
2021/07/10 01:17:16;;;;;;;1.80;1.70;;;;;;;22.70;100.00;97917.09;5013520;28;20238;-64
2021/07/10 01:19:42;;;;;;;1.80;1.53;;;;;;;22.67;100.00;97912.75;5015852;28;20229;-66
2021/07/10 01:22:09;;;;;;;1.80;1.70;;;;;;;22.68;100.00;97909.38;5013432;28;21057;-67
2021/07/10 01:24:37;;;;;;;1.93;1.70;;;;;;;22.70;100.00;97907.72;5016797;28;20225;-64
2021/07/10 01:27:04;;;;;;;1.70;1.60;;;;;;;22.70;100.00;97904.28;5011492;28;20288;-68
2021/07/10 01:29:30;;;;;;;1.80;1.70;;;;;;;22.70;100.00;97912.84;5014772;28;20254;-66
2021/07/10 01:31:58;;;;;;;1.70;1.60;;;;;;;22.70;100.00;97904.28;5012124;28;20296;-67
2021/07/10 01:34:25;;;;;;;1.70;1.60;;;;;;;22.70;100.00;97904.28;5015042;28;20213;-63
2021/07/10 01:36:51;;;;;;;1.70;1.60;;;;;;;22.69;100.00;97892.31;5019726;28;20290;-66
2021/07/10 01:39:18;;;;;;;1.67;1.57;;;;;;;22.70;100.00;97894.91;5020065;28;20276;-68
2021/07/10 01:41:45;;;;;;;1.93;1.83;;;;;;;22.70;100.00;97889.78;5015997;28;20313;-66
2021/07/10 01:44:12;;;;;;;1.80;1.70;;;;;;;22.70;100.00;97892.34;5011328;28;20442;-65
2021/07/10 01:46:39;;;;;;;1.80;1.70;;;;;;;22.32;100.00;97815.16;5016683;28;20679;-66
2021/07/10 01:49:06;;;;;;;1.80;1.70;;;;;;;22.19;100.00;97790.84;5011380;28;20229;-64
2021/07/10 01:51:32;;;;;;;2.00;1.90;;;;;;;22.71;100.00;97880.44;5011120;28;20582;-65
2021/07/10 01:53:59;;;;;;;1.90;1.80;;;;;;;22.71;100.00;97872.75;5005565;28;20296;-68
2021/07/10 01:56:26;;;;;;;1.90;1.80;;;;;;;22.68;100.00;97870.09;5015058;28;20289;-66
2021/07/10 01:58:54;;;;;;;1.93;1.83;;;;;;;22.50;100.00;97847.31;5019589;28;20233;-66
2021/07/10 02:01:21;;;;;;;1.80;1.70;;;;;;;22.71;100.00;97878.72;5013892;28;20266;-66
2021/07/10 02:03:49;;;;;;;1.70;1.60;;;;;;;22.71;100.00;97876.16;5011981;28;20237;-64
2021/07/10 02:06:15;;;;;;;1.70;1.60;;;;;;;22.59;100.00;97852.72;5015405;28;20680;-66
2021/07/10 02:08:42;;;;;;;1.90;1.80;;;;;;;22.57;100.00;97846.72;5018018;28;20244;-67
2021/07/10 02:11:08;;;;;;;1.80;1.70;;;;;;;21.83;100.00;97714.63;5004008;28;20245;-67
2021/07/10 02:13:36;;;;;;;1.70;1.60;;;;;;;22.18;100.00;97781.44;5019722;28;20585;-66
2021/07/10 02:16:04;;;;;;;1.80;1.70;;;;;;;22.60;100.00;97851.03;5017673;28;20205;-66
2021/07/10 02:18:30;;;;;;;1.80;1.70;;;;;;;21.63;100.00;97675.59;5018089;28;20264;-67
2021/07/10 02:20:57;;;;;;;1.90;1.80;;;;;;;22.72;100.00;97864.22;5023431;28;20260;-66
2021/07/10 02:23:23;;;;;;;1.87;1.77;;;;;;;22.71;100.00;97863.34;5017517;28;20297;-66
2021/07/10 02:25:50;;;;;;;1.73;1.63;;;;;;;22.73;100.00;97858.25;5015380;28;20234;-67
2021/07/10 02:28:17;;;;;;;1.70;1.60;;;;;;;22.44;100.00;97808.69;5015580;28;20209;-66
2021/07/10 02:30:43;;;;;;;1.87;1.77;;;;;;;22.72;100.00;97848.84;5017910;28;20751;-66
2021/07/10 02:33:10;;;;;;;1.80;1.70;;;;;;;22.72;100.00;97841.16;5020622;28;20222;-67
2021/07/10 02:35:37;;;;;;;1.90;1.70;;;;;;;22.72;100.00;97841.16;5013940;28;20233;-65
2021/07/10 02:38:03;;;;;;;1.80;1.70;;;;;;;22.73;100.00;97840.31;5023012;28;20649;-66
2021/07/10 02:40:30;;;;;;;1.80;1.70;;;;;;;22.72;100.00;97833.47;5018385;28;20237;-64
2021/07/10 02:42:57;;;;;;;2.03;1.93;;;;;;;22.71;100.00;97832.59;5014631;28;20312;-66
2021/07/10 02:45:23;;;;;;;1.73;1.63;;;;;;;22.62;100.00;97813.53;5015061;28;20245;-66
2021/07/10 02:47:50;;;;;;;1.80;1.70;;;;;;;22.72;100.00;97830.91;5016201;28;20212;-68
2021/07/10 02:50:19;;;;;;;2.00;1.80;;;;;;;22.73;100.00;97835.19;5018394;28;20312;-66
2021/07/10 02:52:46;;;;;;;2.07;1.97;;;;;;;22.73;100.00;97832.63;5018590;28;20662;-66
2021/07/10 02:55:12;;;;;;;1.90;1.80;;;;;;;22.73;100.00;97832.63;5012294;28;20296;-66
2021/07/10 02:57:39;;;;;;;1.50;1.40;;;;;;;22.26;100.00;97754.34;5015598;28;20262;-67
2021/07/10 03:00:12;;;;;;;1.67;1.57;;;;;;;22.36;100.00;97765.75;5020241;28;20256;-66
2021/07/10 03:02:39;;;;;;;1.70;1.60;;;;;;;22.72;100.00;97834.34;5015249;28;20388;-68
2021/07/10 03:05:07;;;;;;;1.83;1.73;;;;;;;22.73;100.00;97842.88;5017649;28;20244;-66
2021/07/10 03:07:35;;;;;;;1.70;1.60;;;;;;;22.72;100.00;97842.03;5020205;28;20260;-67
2021/07/10 03:10:07;;;;;;;1.80;1.70;;;;;;;22.73;100.00;97840.31;5019607;28;20231;-66
2021/07/10 03:12:33;;;;;;;1.70;1.60;;;;;;;22.72;100.00;97833.47;5017747;28;20251;-64
2021/07/10 03:15:00;;;;;;;1.90;1.80;;;;;;;22.72;100.00;97836.91;5012567;28;20247;-68
2021/07/10 03:17:27;;;;;;;1.80;1.70;;;;;;;22.72;100.00;97836.91;5015164;28;20560;-66
2021/07/10 03:19:53;;;;;;;2.00;1.90;;;;;;;22.29;100.00;97761.28;5014754;28;20308;-68
2021/07/10 03:22:20;;;;;;;1.70;1.60;;;;;;;20.92;100.00;97519.94;5024374;28;20332;-66
2021/07/10 03:24:46;;;;;;;1.90;1.70;;;;;;;22.73;100.00;97840.31;5013719;28;20255;-68
2021/07/10 03:27:13;;;;;;;1.90;1.80;;;;;;;22.74;100.00;97847.22;5010081;28;20209;-66
2021/07/10 03:29:40;;;;;;;1.83;1.73;;;;;;;22.72;100.00;97844.59;5018089;28;20252;-67
2021/07/10 03:32:07;;;;;;;1.70;1.60;;;;;;;22.72;100.00;97849.72;5015412;28;20719;-66
2021/07/10 03:34:33;;;;;;;1.70;1.60;;;;;;;22.72;100.00;97847.16;5018116;28;20645;-64
2021/07/10 03:37:00;;;;;;;1.90;1.80;;;;;;;22.58;100.00;97824.50;5013244;28;20611;-66
2021/07/10 03:39:26;;;;;;;1.70;1.60;;;;;;;22.40;100.00;97798.31;5022249;28;20234;-65
2021/07/10 03:41:53;;;;;;;1.83;1.73;;;;;;;22.73;100.00;97848.00;5016179;28;20257;-66
2021/07/10 03:44:19;;;;;;;1.80;1.70;;;;;;;22.73;100.00;97848.91;5014297;28;20237;-69
2021/07/10 03:46:46;;;;;;;1.60;1.50;;;;;;;22.73;100.00;97851.44;5014920;28;20289;-66
2021/07/10 03:49:13;;;;;;;1.67;1.57;;;;;;;22.73;100.00;97854.03;5014804;28;20326;-66
2021/07/10 03:51:39;;;;;;;1.60;1.50;;;;;;;22.73;100.00;97840.31;5019065;28;20297;-66
2021/07/10 03:54:06;;;;;;;1.70;1.60;;;;;;;22.73;100.00;97843.75;5018824;28;20714;-66
2021/07/10 03:56:32;;;;;;;1.70;1.60;;;;;;;22.56;100.00;97821.88;5017059;28;20236;-67
2021/07/10 03:58:59;;;;;;;1.80;1.70;;;;;;;22.59;100.00;97826.25;5014595;28;20280;-66
2021/07/10 04:01:25;;;;;;;2.00;1.90;;;;;;;22.73;100.00;97837.75;5015911;28;20238;-66
2021/07/10 04:03:52;;;;;;;2.10;1.90;;;;;;;22.73;100.00;97835.19;5014452;28;20202;-66
2021/07/10 04:06:19;;;;;;;2.10;2.00;;;;;;;22.73;100.00;97830.97;5011965;28;20551;-64
2021/07/10 04:08:45;;;;;;;1.90;1.80;;;;;;;22.73;100.00;97827.50;5014882;28;20238;-65
2021/07/10 04:11:12;;;;;;;1.80;1.70;;;;;;;21.03;100.00;97533.97;5017023;28;20259;-66
2021/07/10 04:13:39;;;;;;;1.80;1.70;;;;;;;22.73;100.00;97824.94;5012249;28;20644;-66
2021/07/10 04:16:05;;;;;;;1.80;1.70;;;;;;;22.42;100.00;97779.63;5014480;28;20202;-67
2021/07/10 04:18:32;;;;;;;1.90;1.80;;;;;;;22.72;100.00;97826.66;5016958;28;20241;-67
2021/07/10 04:20:59;;;;;;;2.50;2.03;;;;;;;22.58;100.00;97801.44;5012435;28;20781;-66
2021/07/10 04:23:25;;;;;;;2.10;2.00;;;;;;;21.88;100.00;97679.81;5014358;28;20647;-65
2021/07/10 04:25:52;;;;;;;1.80;1.70;;;;;;;22.72;100.00;97829.22;5014167;28;20753;-66
2021/07/10 04:28:19;;;;;;;2.00;1.80;;;;;;;22.73;100.00;97825.81;5019101;28;20660;-66
2021/07/10 04:30:45;;;;;;;1.90;1.80;;;;;;;22.20;100.00;97736.25;5014804;28;20256;-66
2021/07/10 04:33:12;;;;;;;2.00;1.90;;;;;;;22.73;100.00;97824.94;5017650;28;20207;-66
2021/07/10 04:35:39;;;;;;;1.90;1.80;;;;;;;22.74;100.00;97836.97;5014678;28;20775;-67
2021/07/10 04:38:05;;;;;;;2.57;2.20;;;;;;;22.57;100.00;97802.28;5005438;28;20288;-66
2021/07/10 04:40:32;;;;;;;1.80;1.70;;;;;;;22.74;100.00;97831.84;5018002;28;20226;-66
2021/07/10 04:42:58;;;;;;;2.20;2.10;;;;;;;22.73;100.00;97827.50;5012602;28;20312;-66
2021/07/10 04:45:25;;;;;;;2.00;1.90;;;;;;;22.74;100.00;97819.03;5007657;28;20213;-67
2021/07/10 04:47:52;;;;;;;2.30;2.10;;;;;;;22.74;100.00;97824.16;5020596;28;20624;-66
2021/07/10 04:50:18;;;;;;;2.73;2.20;;;;;;;22.73;100.00;97820.72;5021289;28;20884;-66
2021/07/10 04:52:45;;;;;;;2.20;2.10;;;;;;;22.73;100.00;97818.16;5017521;28;20265;-66
2021/07/10 04:55:14;;;;;;;2.50;2.30;;;;;;;22.74;100.00;97829.28;5013383;28;20218;-64
2021/07/10 04:57:41;;;;;;;2.97;2.77;;;;;;;22.73;100.00;97820.72;5014306;28;20210;-66
2021/07/10 05:00:08;;;;;;;3.00;2.60;;;;;;;22.61;100.00;97802.41;5012829;28;20260;-65
2021/07/10 05:02:35;;;;;;;4.00;3.00;;;;;;;22.74;100.00;97826.72;5015995;28;20253;-64
2021/07/10 05:05:02;;;;;;;3.70;3.30;;;;;;;22.42;100.00;97778.75;5016662;28;20210;-65
2021/07/10 05:07:29;;;;;;;3.87;3.47;;;;;;;22.74;100.00;97821.59;5017295;28;20209;-66
2021/07/10 05:09:55;;;;;;;3.60;3.30;;;;;;;22.74;100.00;97816.47;5014450;28;20249;-65
2021/07/10 05:12:22;;;;;;;3.50;3.20;;;;;;;22.73;100.00;97813.03;5015030;28;20202;-66
2021/07/10 05:14:50;;;;;;;4.03;3.70;;;;;;;22.74;100.00;97822.44;5008909;28;20202;-67
2021/07/10 05:17:17;;;;;;;4.13;3.73;;;;;;;22.73;100.00;97810.47;5001665;28;20226;-68
2021/07/10 05:19:44;;;;;;;5.30;4.80;;;;;;;21.94;100.00;97672.31;5003450;28;20236;-66
2021/07/10 05:22:11;;;;;;;12.57;8.87;;;;;;;21.94;100.00;97664.66;5006275;28;20229;-65
2021/07/10 05:24:38;;;;;;;9.23;8.13;;;;;;;22.73;100.00;97812.13;5012226;28;20356;-68
2021/07/10 05:27:05;;;;;;;12.63;10.37;;;;;;;22.72;100.00;97808.72;5002583;28;20245;-66
2021/07/10 05:29:32;;;;;;;14.33;11.13;;;;;;;22.72;100.00;97807.84;5007809;28;20225;-67
2021/07/10 05:31:58;;;;;;;16.90;12.97;;;;;;;22.72;100.00;97815.53;5003185;28;20205;-68
2021/07/10 05:34:26;;;;;;;15.57;13.17;;;;;;;22.71;99.97;97819.78;5002846;28;20203;-64
2021/07/10 05:36:53;;;;;;;16.53;12.70;;;;;;;22.70;100.00;97825.75;4996037;28;20226;-67
2021/07/10 05:39:20;;;;;;;18.87;14.50;;;;;;;22.69;99.84;97820.56;5001033;28;20254;-66
2021/07/10 05:41:46;;;;;;;13.03;11.27;;;;;;;22.64;100.00;97817.00;5024704;22;20254;-61
2021/07/10 05:44:13;;;;;;;13.17;10.10;;;;;;;22.68;100.00;97823.97;5006815;28;20614;-63
2021/07/10 05:46:39;;;;;;;10.83;9.27;;;;;;;22.70;100.00;97824.88;5007555;28;20249;-60
2021/07/10 05:49:06;;;;;;;9.67;8.47;;;;;;;22.68;100.00;97829.09;4990078;28;20241;-59
2021/07/10 05:51:33;;;;;;;10.20;7.77;;;;;;;22.66;100.00;97817.91;5016399;28;20225;-59
2021/07/10 05:53:59;;;;;;;10.23;9.00;;;;;;;22.66;100.00;97821.38;5004699;28;20251;-60
2021/07/10 05:56:26;;;;;;;9.30;8.30;;;;;;;22.69;100.00;97833.38;5007964;28;20237;-62
2021/07/10 05:58:52;;;;;;;10.67;9.07;;;;;;;22.70;100.00;97838.56;5009974;28;20265;-61
2021/07/10 06:01:19;;;;;;;11.13;9.37;;;;;;;22.70;100.00;97838.56;5005593;28;20329;-61
2021/07/10 06:03:46;;;;;;;14.77;9.40;;;;;;;22.70;100.00;97848.81;5006286;28;20222;-62
2021/07/10 06:06:14;;;;;;;13.57;8.93;;;;;;;22.64;100.00;97840.06;5004860;28;20234;-62
2021/07/10 06:08:41;;;;;;;11.37;8.27;;;;;;;22.70;100.00;97845.34;5007098;28;20292;-62
2021/07/10 06:11:08;;;;;;;9.47;8.47;;;;;;;22.71;100.00;97850.53;5005072;28;20258;-61
2021/07/10 06:13:34;;;;;;;9.93;8.50;;;;;;;22.68;100.00;97836.78;5008139;28;20245;-62
2021/07/10 06:16:01;;;;;;;9.60;8.10;;;;;;;22.70;100.00;97843.69;5006697;28;20343;-62
2021/07/10 06:18:28;;;;;;;8.37;7.53;;;;;;;22.65;99.90;97834.97;5008226;28;20227;-59
2021/07/10 06:20:54;;;;;;;10.77;8.00;;;;;;;22.53;96.13;97821.81;5009953;28;20680;-61
2021/07/10 06:23:21;;;;;;;12.23;7.87;;;;;;;22.69;96.76;97847.06;5008424;28;20234;-59
2021/07/10 06:25:48;;;;;;;9.40;8.00;;;;;;;22.69;98.58;97847.06;5009637;28;20581;-60
2021/07/10 06:28:14;;;;;;;9.67;8.20;;;;;;;22.69;99.38;97838.50;5009113;28;20671;-59
2021/07/10 06:30:41;;;;;;;8.80;7.90;;;;;;;22.70;100.00;97847.91;5011576;28;20276;-60
2021/07/10 06:33:08;;;;;;;9.43;8.40;;;;;;;22.71;100.00;97844.56;5006450;28;20203;-61
2021/07/10 06:35:34;;;;;;;9.40;7.90;;;;;;;22.71;100.00;97850.53;5009205;28;20288;-58
2021/07/10 06:38:01;;;;;;;9.30;8.20;;;;;;;22.72;100.00;97851.41;5006611;28;20276;-62
2021/07/10 06:40:27;;;;;;;9.40;8.40;;;;;;;22.71;100.00;97853.09;5005602;28;20234;-60
2021/07/10 06:42:54;;;;;;;8.40;7.60;;;;;;;22.72;100.00;97859.97;5009395;28;20260;-60
2021/07/10 06:45:21;;;;;;;9.07;7.70;;;;;;;22.72;97.15;97857.41;5007413;28;20293;-60
2021/07/10 06:47:48;;;;;;;7.90;7.03;;;;;;;22.72;97.15;97859.09;5003244;28;20238;-59
2021/07/10 06:50:17;;;;;;;9.23;7.60;;;;;;;22.72;98.60;97859.09;4990556;28;20250;-59
2021/07/10 06:52:44;;;;;;;8.43;7.20;;;;;;;22.74;99.77;97866.00;5002916;28;20209;-58
2021/07/10 06:55:11;;;;;;;8.60;7.70;;;;;;;22.73;100.00;97854.03;4998632;28;20227;-60
2021/07/10 06:57:38;;;;;;;11.47;8.27;;;;;;;22.74;100.00;97862.59;5004647;28;20209;-59
2021/07/10 07:00:10;;;;;;;8.50;7.63;;;;;;;22.74;100.00;97855.75;5004520;28;20600;-60
2021/07/10 07:02:37;;;;;;;8.63;7.67;;;;;;;22.75;100.00;97848.94;4985785;28;20308;-60
2021/07/10 07:05:04;;;;;;;7.97;7.17;;;;;;;22.76;100.00;97858.34;5006957;28;20240;-61
2021/07/10 07:07:31;;;;;;;8.23;7.33;;;;;;;22.75;100.00;97849.81;5018031;28;20234;-60
2021/07/10 07:09:58;;;;;;;8.40;7.60;;;;;;;22.77;100.00;97849.88;5013969;28;20237;-60
2021/07/10 07:12:24;;;;;;;7.77;6.97;;;;;;;22.77;100.00;97848.16;5015766;28;20209;-60
2021/07/10 07:14:52;;;;;;;8.10;6.90;;;;;;;22.75;100.00;97848.94;5013621;28;20252;-60
2021/07/10 07:17:19;;;;;;;7.93;7.13;;;;;;;22.77;100.00;97840.47;5014604;28;20288;-60
2021/07/10 07:19:45;;;;;;;8.30;7.43;;;;;;;22.78;100.00;97855.03;5012707;28;20209;-60
2021/07/10 07:22:12;;;;;;;7.77;7.07;;;;;;;22.79;100.00;97845.63;5014934;28;20300;-59
2021/07/10 07:24:38;;;;;;;7.93;7.17;;;;;;;22.79;100.00;97849.06;5013524;28;20249;-59
2021/07/10 07:27:05;;;;;;;9.07;7.63;;;;;;;22.78;100.00;97849.91;5016730;28;20584;-60
2021/07/10 07:29:32;;;;;;;8.67;7.77;;;;;;;22.79;100.00;97848.19;5009993;28;20237;-60
2021/07/10 07:31:58;;;;;;;8.07;7.27;;;;;;;22.80;100.00;97855.06;5017415;28;20591;-59
2021/07/10 07:34:25;;;;;;;8.97;8.07;;;;;;;22.81;100.00;97854.25;5006880;28;20289;-59
2021/07/10 07:36:52;;;;;;;8.53;7.63;;;;;;;22.80;100.00;97844.81;5013220;28;20229;-60
2021/07/10 07:39:18;;;;;;;9.23;8.30;;;;;;;22.80;100.00;97844.81;5020152;28;20758;-60
2021/07/10 07:41:45;;;;;;;9.47;8.57;;;;;;;22.81;100.00;97838.88;5016933;28;20263;-59
2021/07/10 07:44:11;;;;;;;9.53;8.63;;;;;;;22.81;100.00;97836.31;5015297;28;20305;-59
2021/07/10 07:46:38;;;;;;;9.60;8.70;;;;;;;22.76;100.00;97825.03;5019927;28;20243;-59
2021/07/10 07:49:05;;;;;;;9.63;8.73;;;;;;;22.81;100.00;97826.06;5011833;28;20211;-60
2021/07/10 07:51:31;;;;;;;10.00;8.87;;;;;;;22.81;100.00;97816.69;5020608;28;20882;-60
2021/07/10 07:53:58;;;;;;;10.30;9.30;;;;;;;22.82;100.00;97817.53;5014656;28;20230;-60
2021/07/10 07:56:25;;;;;;;10.37;8.93;;;;;;;22.81;100.00;97814.13;5019506;28;20216;-60
2021/07/10 07:58:51;;;;;;;10.87;9.40;;;;;;;22.81;100.00;97816.69;5018057;28;20272;-60
2021/07/10 08:01:18;;;;;;;12.57;9.67;;;;;;;22.82;100.00;97809.84;4993703;28;20225;-59
2021/07/10 08:03:47;;;;;;;11.83;9.60;;;;;;;22.78;100.00;97815.72;5018883;28;20762;-60
2021/07/10 08:06:14;;;;;;;14.63;9.40;;;;;;;22.81;100.00;97818.38;5012669;28;20821;-60
2021/07/10 08:08:41;;;;;;;9.93;8.93;;;;;;;22.81;100.00;97811.56;5019310;28;20201;-60
2021/07/10 08:11:09;;;;;;;10.77;9.67;;;;;;;22.80;100.00;97820.03;5016271;28;20229;-60
2021/07/10 08:13:36;;;;;;;10.43;9.43;;;;;;;22.81;100.00;97818.38;5018263;28;20253;-60
2021/07/10 08:16:03;;;;;;;11.10;10.00;;;;;;;22.83;100.00;97821.84;5016096;28;20208;-59
2021/07/10 08:18:29;;;;;;;10.77;9.57;;;;;;;22.82;100.00;97823.53;5007446;28;20243;-58
2021/07/10 08:20:56;;;;;;;10.37;9.33;;;;;;;22.33;100.00;97743.50;5018744;28;20886;-60
2021/07/10 08:23:22;;;;;;;10.90;9.90;;;;;;;22.83;100.00;97826.97;5014513;28;20309;-58
2021/07/10 08:25:49;;;;;;;10.80;9.53;;;;;;;22.81;100.00;97829.50;5016607;28;20730;-60
2021/07/10 08:28:15;;;;;;;10.17;9.27;;;;;;;22.81;100.00;97826.94;5014975;28;20202;-59
2021/07/10 08:30:42;;;;;;;10.37;9.47;;;;;;;22.83;100.00;97832.09;5016210;28;20221;-59
2021/07/10 08:33:09;;;;;;;10.53;9.30;;;;;;;22.79;100.00;97814.88;5013794;28;20281;-60
2021/07/10 08:35:35;;;;;;;9.53;8.70;;;;;;;22.82;100.00;97823.53;5017601;28;20284;-60
2021/07/10 08:38:02;;;;;;;10.27;9.27;;;;;;;22.83;100.00;97822.69;5014198;28;20245;-60
2021/07/10 08:40:29;;;;;;;9.90;8.90;;;;;;;22.83;100.00;97820.13;5007712;28;20230;-60
2021/07/10 08:42:55;;;;;;;10.63;9.53;;;;;;;22.84;100.00;97813.31;5012547;28;20292;-60
2021/07/10 08:45:22;;;;;;;11.47;9.20;;;;;;;22.82;100.00;97818.41;5013100;28;20261;-60
2021/07/10 08:47:48;;;;;;;10.30;9.03;;;;;;;22.83;100.00;97811.59;5015945;28;20671;-60
2021/07/10 08:50:17;;;;;;;9.83;8.93;;;;;;;22.84;100.00;97810.75;5015158;28;20253;-60
2021/07/10 08:52:48;;;;;;;10.10;9.20;;;;;;;22.84;100.00;97803.06;5014853;28;20208;-60
2021/07/10 08:55:15;;;;;;;9.90;8.90;;;;;;;22.83;100.00;97802.19;5019294;28;20240;-60
2021/07/10 08:57:42;;;;;;;9.80;8.80;;;;;;;22.84;100.00;97797.94;5008571;28;20233;-60
2021/07/10 09:00:11;;;;;;;9.43;8.53;;;;;;;22.77;100.00;97778.13;5001832;28;20233;-59
2021/07/10 09:02:40;;;;;;;10.10;9.13;;;;;;;22.83;100.00;97786.81;5004826;28;20892;-60
2021/07/10 09:05:10;;;;;;;10.77;9.67;;;;;;;22.83;100.00;97784.25;5002049;28;20257;-61
2021/07/10 09:08:21;;;;;;;9.63;8.73;;;;;;;22.84;100.00;97786.03;4999325;28;20229;-59
2021/07/10 09:10:49;;;;;;;9.03;8.23;;;;;;;22.83;100.00;97779.13;4997608;28;20280;-58
2021/07/10 09:13:16;;;;;;;8.93;8.13;;;;;;;22.84;100.00;97787.69;5004166;28;20624;-59
2021/07/10 09:15:44;;;;;;;9.13;8.33;;;;;;;22.84;100.00;97790.25;5007712;28;20197;-62
2021/07/10 09:18:12;;;;;;;8.67;7.87;;;;;;;22.81;100.00;97774.81;5006308;28;20226;-60
2021/07/10 09:20:40;;;;;;;9.00;8.20;;;;;;;22.81;100.00;97778.25;5008156;28;20646;-59
2021/07/10 09:23:40;;;;;;;8.77;7.97;;;;;;;22.83;100.00;97776.56;4984044;28;20718;-60
2021/07/10 09:26:14;;;;;;;9.20;8.27;;;;;;;22.83;100.00;97770.59;4979277;28;20290;-60
2021/07/10 09:28:41;;;;;;;8.87;8.07;;;;;;;22.79;100.00;97761.06;4979285;28;20293;-60
2021/07/10 09:31:26;;;;;;;8.83;8.03;;;;;;;22.84;100.00;97756.94;4996572;28;20219;-60
2021/07/10 09:33:57;;;;;;;8.37;7.57;;;;;;;22.83;100.00;97756.06;5002684;28;20234;-58
2021/07/10 09:36:24;;;;;;;8.20;7.50;;;;;;;22.65;100.00;97722.25;5019104;28;20241;-58
2021/07/10 09:38:53;;;;;;;8.03;7.33;;;;;;;22.83;100.00;97755.22;5015851;28;20313;-58
2021/07/10 09:41:24;;;;;;;8.33;7.30;;;;;;;22.83;100.00;97750.09;5010691;28;20957;-60
2021/07/10 09:43:56;;;;;;;8.57;7.70;;;;;;;22.84;100.00;97751.81;5008818;28;20693;-61
2021/07/10 09:46:27;;;;;;;8.30;7.50;;;;;;;22.83;100.00;97743.25;5012366;28;20293;-59
2021/07/10 09:48:54;;;;;;;10.10;7.50;;;;;;;22.83;100.00;97735.56;5016220;28;20212;-60
2021/07/10 09:51:25;;;;;;;8.00;7.30;;;;;;;22.84;100.00;97739.88;4996215;28;20222;-59
2021/07/10 09:54:03;;;;;;;7.77;7.07;;;;;;;22.84;100.00;97734.75;5012202;28;20248;-60
2021/07/10 09:56:30;;;;;;;7.70;6.97;;;;;;;22.85;100.00;97727.91;5014640;28;20316;-60
2021/07/10 09:58:57;;;;;;;7.10;6.50;;;;;;;22.85;100.00;97730.47;5016820;28;20237;-60
2021/07/10 10:01:33;;;;;;;7.83;7.13;;;;;;;22.85;100.00;97722.78;5014701;28;20588;-59
2021/07/10 10:04:00;;;;;;;7.63;6.93;;;;;;;22.86;100.00;97724.56;5008440;28;20226;-59
2021/07/10 10:06:33;;;;;;;7.30;6.63;;;;;;;22.84;100.00;97711.69;5017488;28;20206;-61
2021/07/10 10:09:00;;;;;;;8.17;7.40;;;;;;;22.86;100.00;97704.06;5006242;28;20203;-60
2021/07/10 10:11:57;;;;;;;7.07;6.47;;;;;;;22.85;100.00;97703.19;5000609;28;20749;-60
2021/07/10 10:14:25;;;;;;;7.27;6.57;;;;;;;22.86;100.00;97704.06;5011199;28;20214;-59
2021/07/10 10:16:52;;;;;;;7.43;6.73;;;;;;;22.84;100.00;97693.75;5018520;28;20636;-60
2021/07/10 10:19:23;;;;;;;6.87;6.27;;;;;;;22.80;100.00;97688.50;5014317;28;20234;-59
2021/07/10 10:21:51;;;;;;;7.07;6.47;;;;;;;22.85;100.00;97697.16;4995115;28;20249;-60
2021/07/10 10:24:18;;;;;;;6.97;6.37;;;;;;;22.85;100.00;97694.59;5013850;28;20348;-59
2021/07/10 10:26:45;;;;;;;7.43;6.80;;;;;;;22.86;100.00;97688.69;5011950;28;20231;-60
2021/07/10 10:29:12;;;;;;;6.90;6.30;;;;;;;22.86;100.00;97681.00;5011698;28;20220;-60
2021/07/10 10:31:40;;;;;;;6.43;5.93;;;;;;;22.85;100.00;97677.53;5017551;28;20279;-60
2021/07/10 10:34:07;;;;;;;8.47;6.87;;;;;;;22.85;100.00;97672.41;5005355;28;20198;-60
2021/07/10 10:36:35;;;;;;;6.90;6.30;;;;;;;22.86;100.00;97676.72;5022256;28;20233;-58
2021/07/10 10:39:07;;;;;;;7.00;6.40;;;;;;;22.87;100.00;97672.47;5017395;28;20285;-70
2021/07/10 10:41:38;;;;;;;7.10;6.50;;;;;;;22.86;100.00;97683.56;5013615;28;20605;-60
2021/07/10 10:44:05;;;;;;;10.50;6.77;;;;;;;22.87;100.00;97672.47;5000781;28;20312;-60
2021/07/10 10:46:41;;;;;;;6.83;6.13;;;;;;;22.86;100.00;97669.03;5018046;28;20305;-59
2021/07/10 10:49:11;;;;;;;6.87;6.07;;;;;;;22.87;100.00;97662.22;5013366;28;20294;-59
2021/07/10 10:51:41;;;;;;;6.97;6.27;;;;;;;22.87;100.00;97654.53;5009619;28;20253;-60
2021/07/10 10:54:28;;;;;;;7.53;6.20;;;;;;;22.76;100.00;97645.69;5015670;28;20230;-60
2021/07/10 10:56:54;;;;;;;6.90;6.30;;;;;;;22.76;100.00;97640.56;5019780;28;20245;-60
2021/07/10 10:59:38;;;;;;;6.93;6.33;;;;;;;22.86;100.00;97658.78;5015156;28;20242;-60
2021/07/10 11:02:23;;;;;;;8.77;6.50;;;;;;;22.87;100.00;97659.66;5018188;28;20308;-61
2021/07/10 11:04:58;;;;;;;6.83;6.23;;;;;;;22.87;100.00;97650.28;5016207;28;20913;-60
2021/07/10 11:07:35;;;;;;;6.50;5.90;;;;;;;22.87;100.00;97647.72;5017514;28;20205;-60
2021/07/10 11:10:01;;;;;;;6.87;6.20;;;;;;;22.87;100.00;97640.03;5014196;28;20213;-62
2021/07/10 11:12:50;;;;;;;6.27;5.77;;;;;;;22.87;100.00;97642.59;5018223;28;20203;-60
2021/07/10 11:15:25;;;;;;;7.27;6.17;;;;;;;22.88;100.00;97643.44;5009585;28;20636;-61
2021/07/10 11:18:06;;;;;;;8.27;6.20;;;;;;;22.87;100.00;97640.03;5016394;28;20584;-60
2021/07/10 11:20:42;;;;;;;6.90;6.20;;;;;;;22.88;100.00;97634.06;5017201;28;20330;-58
2021/07/10 11:23:31;;;;;;;6.60;6.00;;;;;;;22.88;100.00;97631.50;5012582;28;20308;-60
2021/07/10 11:25:59;;;;;;;7.33;6.63;;;;;;;22.86;100.00;97628.00;5022441;28;20209;-59
2021/07/10 11:28:30;;;;;;;6.40;5.80;;;;;;;22.88;100.00;97631.50;5017192;28;20674;-59